createdAt,value
2023-01-15T00:02:52.086Z,7.89
2023-01-15T00:07:54.505Z,7.38
2023-01-15T00:12:56.672Z,7.79
2023-01-15T00:17:58.873Z,7.11
2023-01-15T00:23:01.147Z,7.07
2023-01-15T00:28:04.576Z,7.43
2023-01-15T00:33:06.768Z,7.70
2023-01-15T00:38:09.034Z,7.76
2023-01-15T00:43:11.749Z,7.92
2023-01-15T00:48:15.083Z,7.10
2023-01-15T00:53:17.396Z,7.45
2023-01-15T00:58:19.665Z,7.52
2023-01-15T01:03:23.737Z,7.45
2023-01-15T01:08:25.853Z,7.40
2023-01-15T01:13:27.984Z,7.46
2023-01-15T01:18:30.196Z,6.97
2023-01-15T01:23:32.699Z,7.13
2023-01-15T01:28:34.762Z,7.05
2023-01-15T01:33:36.933Z,7.16
2023-01-15T01:38:39.263Z,7.66
2023-01-15T01:43:52.668Z,7.46
2023-01-15T01:48:58.447Z,7.76
2023-01-15T01:54:00.725Z,8.19
2023-01-15T01:59:04.459Z,8.09
2023-01-15T02:04:08.219Z,7.57
2023-01-15T02:09:10.319Z,7.66
2023-01-15T02:14:25.149Z,7.94
2023-01-15T02:19:41.215Z,7.52
2023-01-15T02:24:59.639Z,7.37
2023-01-15T02:30:23.168Z,7.30
2023-01-15T02:35:40.276Z,7.52
2023-01-15T02:40:46.779Z,7.41
2023-01-15T02:45:50.732Z,7.66
2023-01-15T02:50:56.630Z,7.22
2023-01-15T02:56:03.526Z,7.78
2023-01-15T03:01:14.310Z,7.60
2023-01-15T03:06:36.863Z,7.46
2023-01-15T03:11:44.792Z,7.63
2023-01-15T03:16:57.188Z,7.91
2023-01-15T03:22:11.002Z,7.78
2023-01-15T03:27:14.039Z,7.56
2023-01-15T03:32:21.537Z,7.81
2023-01-15T03:37:25.669Z,7.96
2023-01-15T03:42:45.444Z,7.60
2023-01-15T03:48:11.705Z,7.70
2023-01-15T03:53:34.294Z,7.27
2023-01-15T03:58:57.906Z,7.51
2023-01-15T04:04:08.514Z,7.59
2023-01-15T04:09:12.461Z,7.86
2023-01-15T04:14:15.041Z,7.24
2023-01-15T04:19:24.707Z,7.02
2023-01-15T04:24:39.419Z,7.49
2023-01-15T04:29:41.543Z,7.37
2023-01-15T04:34:43.594Z,7.35
2023-01-15T04:39:47.052Z,7.71
2023-01-15T04:44:49.101Z,7.67
2023-01-15T04:49:51.359Z,7.65
2023-01-15T04:54:55.554Z,7.58
2023-01-15T04:59:58.426Z,7.47
2023-01-15T05:05:00.508Z,7.59
2023-01-15T05:10:02.602Z,7.14
2023-01-15T05:15:05.419Z,7.64
2023-01-15T05:20:08.532Z,7.43
2023-01-15T05:25:10.820Z,7.44
2023-01-15T05:30:14.437Z,7.20
2023-01-15T05:35:16.557Z,7.70
2023-01-15T05:40:18.746Z,7.49
2023-01-15T05:45:20.861Z,7.38
2023-01-15T05:50:22.959Z,7.47
2023-01-15T05:55:25.076Z,7.19
2023-01-15T06:00:28.777Z,7.15
2023-01-15T06:05:32.457Z,7.02
2023-01-15T06:10:34.569Z,7.49
2023-01-15T06:15:36.862Z,7.51
2023-01-15T06:20:40.534Z,7.14
2023-01-15T06:25:42.641Z,7.40
2023-01-15T06:30:44.889Z,7.49
2023-01-15T06:35:46.991Z,7.56
2023-01-15T06:40:49.078Z,7.07
2023-01-15T06:46:09.742Z,7.68
2023-01-15T06:51:15.379Z,6.91
2023-01-15T06:56:17.922Z,7.13
2023-01-15T07:01:20.315Z,7.22
2023-01-15T07:06:22.522Z,7.59
2023-01-15T07:11:24.885Z,7.71
2023-01-15T07:16:29.981Z,7.13
2023-01-15T07:21:32.062Z,7.61
2023-01-15T07:26:34.688Z,7.00
2023-01-15T07:31:37.623Z,7.00
2023-01-15T07:36:39.960Z,7.79
2023-01-15T07:42:00.983Z,7.29
2023-01-15T07:47:22.407Z,7.28
2023-01-15T07:52:24.926Z,7.19
2023-01-15T07:57:27.292Z,7.20
2023-01-15T08:02:30.371Z,7.37
2023-01-15T08:07:58.020Z,7.41
2023-01-15T08:13:18.855Z,7.47
2023-01-15T08:18:22.114Z,7.62
2023-01-15T08:23:24.225Z,7.00
2023-01-15T08:28:26.703Z,7.34
2023-01-15T08:33:28.880Z,7.49
2023-01-15T08:38:31.028Z,7.25
2023-01-15T08:43:33.385Z,7.42
2023-01-15T08:48:35.760Z,7.47
2023-01-15T08:53:38.534Z,7.08
2023-01-15T08:58:40.891Z,6.68
2023-01-15T09:03:43.856Z,7.09
2023-01-15T09:08:46.169Z,7.02
2023-01-15T09:13:51.145Z,6.78
2023-01-15T09:18:55.531Z,6.94
2023-01-15T09:23:57.885Z,6.76
2023-01-15T09:29:01.284Z,7.04
2023-01-15T09:34:03.851Z,6.30
2023-01-15T09:39:06.637Z,6.45
2023-01-15T09:44:12.435Z,6.68
2023-01-15T09:49:42.474Z,7.06
2023-01-15T09:55:02.535Z,7.04
2023-01-15T10:00:06.588Z,6.64
2023-01-15T10:05:18.824Z,6.81
2023-01-15T10:10:23.973Z,6.86
2023-01-15T10:15:40.869Z,6.85
2023-01-15T10:21:07.327Z,6.68
2023-01-15T10:26:18.240Z,7.36
2023-01-15T10:31:24.581Z,7.12
2023-01-15T10:36:59.155Z,6.92
2023-01-15T10:42:19.836Z,7.24
2023-01-15T10:47:29.275Z,7.09
2023-01-15T10:52:33.954Z,6.97
2023-01-15T10:57:50.977Z,6.71
2023-01-15T11:03:09.047Z,6.59
2023-01-15T11:14:13.618Z,8.06
2023-01-15T11:19:42.171Z,7.90
2023-01-15T11:24:50.334Z,7.75
2023-01-15T11:30:01.089Z,7.64
2023-01-15T11:35:16.444Z,7.49
2023-01-15T11:40:21.315Z,7.18
2023-01-15T11:45:43.196Z,7.29
2023-01-15T11:51:00.085Z,7.24
2023-01-15T11:56:08.832Z,7.97
2023-01-15T12:01:15.798Z,7.11
2023-01-15T12:06:19.832Z,7.85
2023-01-15T12:12:03.559Z,7.57
2023-01-15T12:17:36.656Z,7.43
2023-01-15T12:22:49.571Z,7.53
2023-01-15T12:28:16.623Z,7.21
2023-01-15T12:33:20.788Z,7.42
2023-01-15T12:38:49.143Z,7.56
2023-01-15T12:44:13.098Z,7.25
2023-01-15T12:49:31.733Z,6.84
2023-01-15T12:54:39.552Z,6.58
2023-01-15T12:59:48.423Z,7.38
2023-01-15T13:05:13.857Z,7.73
2023-01-15T13:10:19.381Z,7.13
2023-01-15T13:15:26.903Z,7.55
2023-01-15T13:20:41.130Z,7.38
2023-01-15T13:26:05.835Z,7.81
2023-01-15T13:31:20.131Z,7.01
2023-01-15T13:36:28.423Z,7.77
2023-01-15T13:41:51.070Z,6.84
2023-01-15T13:47:23.987Z,7.37
2023-01-15T13:52:32.916Z,7.39
2023-01-15T13:57:37.711Z,7.10
2023-01-15T14:02:41.330Z,6.90
2023-01-15T14:07:43.590Z,7.45
2023-01-15T14:12:48.641Z,6.83
2023-01-15T14:18:04.533Z,7.43
2023-01-15T14:23:31.754Z,6.96
2023-01-15T14:28:38.438Z,7.44
2023-01-15T14:34:10.872Z,7.08
2023-01-15T14:39:31.747Z,7.43
2023-01-15T14:44:37.283Z,6.81
2023-01-15T14:49:49.544Z,7.55
2023-01-15T14:54:53.235Z,7.10
2023-01-15T15:00:00.589Z,6.62
2023-01-15T15:05:03.820Z,6.85
2023-01-15T15:10:12.680Z,7.34
2023-01-15T15:15:27.038Z,6.99
2023-01-15T15:20:45.524Z,7.21
2023-01-15T15:25:57.583Z,7.63
2023-01-15T15:31:01.457Z,7.21
2023-01-15T15:36:04.079Z,6.92
2023-01-15T15:41:10.011Z,7.00
2023-01-15T15:46:45.384Z,7.22
2023-01-15T15:51:52.262Z,7.32
2023-01-15T15:57:13.790Z,7.34
2023-01-15T16:02:19.557Z,6.88
2023-01-15T16:07:28.174Z,6.80
2023-01-15T16:12:33.389Z,7.37
2023-01-15T16:17:36.545Z,7.08
2023-01-15T16:22:44.818Z,6.78
2023-01-15T16:27:47.221Z,6.95
2023-01-15T16:32:50.583Z,7.07
2023-01-15T16:37:55.294Z,7.50
2023-01-15T16:43:04.995Z,6.93
2023-01-15T16:48:30.926Z,7.05
2023-01-15T16:53:36.061Z,7.56
2023-01-15T16:58:39.669Z,7.31
2023-01-15T17:03:42.770Z,6.45
2023-01-15T17:08:48.379Z,7.43
2023-01-15T17:13:51.077Z,6.69
2023-01-15T17:18:54.304Z,7.46
2023-01-15T17:23:57.144Z,7.74
2023-01-15T17:28:59.599Z,6.80
2023-01-15T17:34:03.603Z,6.65
2023-01-15T17:39:05.823Z,7.31
2023-01-15T17:44:09.704Z,7.17
2023-01-15T17:49:12.076Z,6.99
2023-01-15T17:54:34.170Z,6.32
2023-01-15T17:59:54.614Z,6.56
2023-01-15T18:05:15.445Z,6.59
2023-01-15T18:10:21.055Z,6.76
2023-01-15T18:15:23.381Z,6.85
2023-01-15T18:20:25.490Z,6.58
2023-01-15T18:25:27.848Z,6.65
2023-01-15T18:30:30.236Z,6.59
2023-01-15T18:35:32.548Z,6.87
2023-01-15T18:40:34.852Z,7.13
2023-01-15T18:45:55.606Z,6.78
2023-01-15T18:50:59.031Z,6.57
2023-01-15T18:56:02.973Z,6.71
2023-01-15T19:01:08.918Z,7.53
2023-01-15T19:06:13.901Z,6.77
2023-01-15T19:11:15.992Z,6.77
2023-01-15T19:16:36.958Z,7.15
2023-01-15T19:21:39.256Z,6.80
2023-01-15T19:26:41.496Z,6.67
2023-01-15T19:31:43.638Z,6.98
2023-01-15T19:36:46.154Z,7.01
2023-01-15T19:42:07.022Z,6.99
2023-01-15T19:47:35.396Z,7.12
2023-01-15T19:52:38.034Z,7.02
2023-01-15T19:57:41.228Z,7.37
2023-01-15T20:02:44.861Z,7.04
2023-01-15T20:07:47.257Z,7.41
2023-01-15T20:13:09.085Z,7.83
2023-01-15T20:18:11.587Z,7.65
2023-01-15T20:23:14.521Z,7.48
2023-01-15T20:28:16.840Z,7.45
2023-01-15T20:33:18.901Z,7.15
2023-01-15T20:38:23.043Z,7.18
2023-01-15T20:43:43.713Z,6.61
2023-01-15T20:49:04.562Z,7.07
2023-01-15T20:54:07.056Z,6.72
2023-01-15T20:59:09.141Z,7.16
2023-01-15T21:04:13.808Z,7.04
2023-01-15T21:09:16.577Z,6.62
2023-01-15T21:14:18.647Z,6.80
2023-01-15T21:19:21.189Z,6.94
2023-01-15T21:24:23.552Z,6.43
2023-01-15T21:29:25.888Z,6.57
2023-01-15T21:34:28.075Z,6.79
2023-01-15T21:39:30.191Z,6.59
2023-01-15T21:44:36.073Z,6.26
2023-01-15T21:49:38.405Z,6.58
2023-01-15T21:54:41.215Z,6.21
2023-01-15T21:59:43.409Z,7.04
2023-01-15T22:04:45.908Z,6.39
2023-01-15T22:09:48.366Z,6.37
2023-01-15T22:14:50.698Z,6.04
2023-01-15T22:19:53.065Z,5.81
2023-01-15T22:24:55.136Z,5.81
2023-01-15T22:29:57.472Z,5.23
2023-01-15T22:34:59.560Z,5.86
2023-01-15T22:40:01.960Z,5.76
2023-01-15T22:45:04.366Z,5.28
2023-01-15T22:50:06.910Z,5.60
2023-01-15T22:55:09.639Z,5.28
2023-01-15T23:00:12.105Z,5.70
2023-01-15T23:05:14.408Z,5.67
2023-01-15T23:10:16.910Z,5.60
2023-01-15T23:15:19.098Z,5.79
2023-01-15T23:20:21.457Z,5.83
2023-01-15T23:25:23.604Z,5.91
2023-01-15T23:30:25.718Z,5.83
2023-01-15T23:35:27.967Z,5.77
2023-01-15T23:40:30.219Z,5.92
2023-01-15T23:45:54.054Z,6.27
2023-01-15T23:50:56.097Z,6.43
2023-01-15T23:55:59.719Z,6.07
